Time;durP1;ratioP1;P1;durP2;ratioP2;P2;SDS_P1;SDS_P2;PMS_P1;PMS_P2;Temp;Humidity;BMP_temperature;BMP_pressure;BME280_temperature;BME280_humidity;BME280_pressure;Samples;Min_cycle;Max_cycle;Signal;HPM_P1;HPM_P2
2021/06/01 00:02:17;;;;;;;1.02;0.90;;;;;;;12.31;46.94;96673.09;5115016;28;20046;-77
2021/06/01 00:04:44;;;;;;;0.80;0.80;;;;;;;12.26;47.17;96672.16;5115776;28;20042;-77
2021/06/01 00:07:10;;;;;;;1.23;1.10;;;;;;;12.22;47.29;96668.38;5115093;28;20043;-77
2021/06/01 00:09:36;;;;;;;0.90;0.90;;;;;;;12.21;47.54;96664.13;5113794;28;20062;-75
2021/06/01 00:12:03;;;;;;;1.10;0.93;;;;;;;12.19;47.32;96666.97;5115126;28;20036;-76
2021/06/01 00:14:29;;;;;;;0.88;0.85;;;;;;;12.18;47.54;96670.66;5114978;28;20394;-75
2021/06/01 00:16:55;;;;;;;0.93;0.93;;;;;;;12.17;47.74;96664.56;5114750;28;20038;-75
2021/06/01 00:19:22;;;;;;;1.27;0.80;;;;;;;12.16;47.48;96667.44;5114951;28;20082;-74
2021/06/01 00:21:50;;;;;;;1.00;1.00;;;;;;;12.18;47.71;96665.41;5115096;28;20054;-74
2021/06/01 00:24:16;;;;;;;0.70;0.70;;;;;;;12.19;47.88;96664.34;5114784;28;20039;-74
2021/06/01 00:26:43;;;;;;;0.60;0.60;;;;;;;12.16;47.83;96664.81;5114405;28;20071;-74
2021/06/01 00:29:10;;;;;;;0.88;0.88;;;;;;;12.12;47.82;96659.19;5114457;28;20040;-74
2021/06/01 00:31:37;;;;;;;0.75;0.75;;;;;;;12.05;47.92;96653.19;5114395;28;20483;-75
2021/06/01 00:34:04;;;;;;;0.68;0.68;;;;;;;12.00;48.22;96653.06;5114611;28;20032;-75
2021/06/01 00:36:31;;;;;;;0.73;0.73;;;;;;;11.93;48.37;96642.66;5114933;28;20055;-74
2021/06/01 00:38:57;;;;;;;1.10;1.00;;;;;;;11.87;48.56;96646.13;5114104;28;20411;-75
2021/06/01 00:41:24;;;;;;;1.00;1.00;;;;;;;11.76;48.67;96636.38;5114448;28;20055;-76
2021/06/01 00:43:50;;;;;;;0.95;0.93;;;;;;;11.67;49.11;96641.09;5115085;27;20044;-76
2021/06/01 00:46:16;;;;;;;0.90;0.90;;;;;;;11.62;49.43;96640.97;5114714;28;20039;-76
2021/06/01 00:48:42;;;;;;;1.08;1.08;;;;;;;11.60;49.70;96639.59;5114523;28;20039;-75
2021/06/01 00:51:09;;;;;;;0.90;0.90;;;;;;;11.56;49.82;96645.25;5114361;28;20035;-75
2021/06/01 00:53:37;;;;;;;0.70;0.70;;;;;;;11.54;50.05;96643.88;5114149;27;20039;-76
2021/06/01 00:56:05;;;;;;;0.95;0.93;;;;;;;11.52;50.17;96648.53;5114090;28;20043;-76
2021/06/01 00:58:31;;;;;;;0.80;0.80;;;;;;;11.49;50.31;96638.50;5114353;28;20043;-76
2021/06/01 01:03:33;;;;;;;0.80;0.80;;;;;;;11.37;50.67;96638.41;5114106;28;20467;-76
2021/06/01 01:06:40;;;;;;;0.80;0.80;;;;;;;11.32;51.96;96648.75;5111812;28;20044;-76
2021/06/01 01:09:11;;;;;;;0.93;0.90;;;;;;;11.23;51.08;96640.34;5095214;28;20051;-76
2021/06/01 01:11:59;;;;;;;1.58;1.40;;;;;;;11.18;51.35;96643.63;5114010;28;20043;-76
2021/06/01 01:14:30;;;;;;;0.95;0.82;;;;;;;11.12;52.06;96646.31;5113624;28;20039;-76
2021/06/01 01:17:00;;;;;;;0.90;0.90;;;;;;;11.08;52.01;96639.88;5113464;28;20047;-76
2021/06/01 01:19:51;;;;;;;0.90;0.90;;;;;;;11.03;52.95;96648.41;5114155;28;20463;-74
2021/06/01 01:22:19;;;;;;;0.90;0.90;;;;;;;10.98;51.99;96643.00;5104664;28;20042;-75
2021/06/01 01:25:23;;;;;;;1.10;1.00;;;;;;;10.95;53.38;96643.44;5113387;28;20047;-75
2021/06/01 01:28:18;;;;;;;1.05;1.05;;;;;;;10.90;53.81;96656.41;5113382;28;20040;-75
2021/06/01 01:30:49;;;;;;;1.02;1.02;;;;;;;10.85;52.62;96646.53;5113840;28;20040;-75
2021/06/01 01:33:20;;;;;;;1.02;1.02;;;;;;;10.82;52.68;96643.56;5113699;28;20046;-76
2021/06/01 01:35:51;;;;;;;1.30;1.15;;;;;;;10.78;53.43;96651.03;5113485;28;20062;-75
2021/06/01 01:38:18;;;;;;;0.90;0.90;;;;;;;10.74;53.06;96648.03;5114037;28;20051;-75
2021/06/01 01:40:46;;;;;;;0.70;0.70;;;;;;;10.72;53.09;96646.66;5113951;28;20051;-76
2021/06/01 01:43:18;;;;;;;1.10;1.10;;;;;;;10.67;53.28;96649.13;5112117;28;20557;-77
2021/06/01 01:45:49;;;;;;;1.30;1.20;;;;;;;10.64;53.54;96652.94;5113435;28;20415;-77
2021/06/01 01:51:11;;;;;;;1.00;1.00;;;;;;;10.51;54.58;96645.19;5113690;28;20044;-77
2021/06/01 01:53:46;;;;;;;0.90;0.90;;;;;;;10.44;54.80;96647.06;5113814;28;20028;-76
2021/06/01 01:56:14;;;;;;;1.08;1.08;;;;;;;10.39;54.08;96646.88;5113696;28;20072;-76
2021/06/01 01:58:41;;;;;;;1.17;1.02;;;;;;;10.31;54.23;96643.50;5113182;28;20436;-76
2021/06/01 02:01:08;;;;;;;1.40;1.30;;;;;;;10.28;54.51;96643.88;5113281;28;20050;-76
2021/06/01 02:03:36;;;;;;;1.15;1.13;;;;;;;10.28;54.59;96640.47;5113485;28;20043;-76
2021/06/01 02:06:02;;;;;;;0.70;0.70;;;;;;;10.28;54.92;96640.47;5113352;28;20403;-77
2021/06/01 02:08:28;;;;;;;1.08;1.08;;;;;;;10.29;54.84;96644.66;5113406;28;20046;-76
2021/06/01 02:10:54;;;;;;;1.00;1.00;;;;;;;10.28;54.97;96641.25;5112726;28;20039;-76
2021/06/01 02:13:20;;;;;;;1.33;1.23;;;;;;;10.28;54.88;96645.69;5113168;28;20036;-77
2021/06/01 02:15:47;;;;;;;2.08;1.10;;;;;;;10.25;54.96;96640.88;5113133;28;20039;-76
2021/06/01 02:18:13;;;;;;;0.93;0.93;;;;;;;10.21;55.21;96642.31;5115232;28;20032;-77
2021/06/01 02:20:41;;;;;;;1.05;1.05;;;;;;;10.17;55.33;96644.56;5117176;28;20051;-77
2021/06/01 02:26:06;;;;;;;1.02;1.02;;;;;;;10.11;55.68;96643.56;5117574;28;20066;-77
2021/06/01 02:28:41;;;;;;;0.98;0.98;;;;;;;10.07;56.41;96638.97;5103565;28;20035;-76
2021/06/01 02:31:14;;;;;;;0.98;0.98;;;;;;;10.03;56.05;96637.75;5117343;28;20055;-76
2021/06/01 02:33:43;;;;;;;1.27;1.17;;;;;;;9.98;55.84;96638.41;5116436;27;20044;-77
2021/06/01 02:36:14;;;;;;;0.98;0.98;;;;;;;9.98;56.17;96645.47;5116931;27;20498;-78
2021/06/01 02:38:41;;;;;;;2.30;1.00;;;;;;;9.92;55.96;96637.41;5116032;28;20044;-77
2021/06/01 02:41:09;;;;;;;1.02;1.02;;;;;;;9.85;55.94;96634.03;5116241;28;20404;-77
2021/06/01 02:43:36;;;;;;;1.05;1.05;;;;;;;9.84;56.06;96636.84;5117323;28;20031;-77
2021/06/01 02:46:02;;;;;;;1.20;1.15;;;;;;;9.83;56.15;96633.44;5116713;28;20047;-76
2021/06/01 02:48:29;;;;;;;0.90;0.90;;;;;;;9.86;56.32;96633.00;5116701;28;20042;-77
2021/06/01 02:50:58;;;;;;;1.05;1.05;;;;;;;9.89;56.39;96637.00;5116756;28;20043;-75
2021/06/01 02:53:24;;;;;;;1.27;1.08;;;;;;;9.89;56.31;96637.84;5117165;28;20031;-76
2021/06/01 02:55:51;;;;;;;1.10;1.00;;;;;;;9.87;56.29;96637.25;5116633;28;20062;-76
2021/06/01 02:58:19;;;;;;;1.08;1.05;;;;;;;9.88;56.32;96635.41;5116600;28;20051;-77
2021/06/01 03:00:45;;;;;;;0.98;0.98;;;;;;;9.86;56.42;96643.47;5116382;27;20046;-76
2021/06/01 03:03:13;;;;;;;1.15;0.90;;;;;;;9.80;56.64;96631.22;5116240;28;20039;-76
2021/06/01 03:05:40;;;;;;;1.10;1.10;;;;;;;9.71;56.49;96629.84;5116977;28;20043;-75
2021/06/01 03:08:12;;;;;;;1.27;1.20;;;;;;;9.66;57.05;96624.41;5116132;28;20050;-75
2021/06/01 03:10:38;;;;;;;2.30;1.10;;;;;;;9.62;56.88;96631.09;5115875;28;20047;-76
2021/06/01 03:13:04;;;;;;;1.05;1.00;;;;;;;9.59;56.82;96627.06;5116076;28;20038;-76
2021/06/01 03:15:31;;;;;;;0.80;0.80;;;;;;;9.55;56.97;96629.31;5116195;28;20043;-75
2021/06/01 03:17:57;;;;;;;0.98;0.98;;;;;;;9.54;57.13;96625.06;5115913;28;20047;-76
2021/06/01 03:20:23;;;;;;;1.10;1.10;;;;;;;9.53;57.25;96631.34;5116161;28;20040;-76
2021/06/01 03:22:49;;;;;;;1.00;1.00;;;;;;;9.51;57.37;96632.53;5115673;28;20403;-76
2021/06/01 03:25:15;;;;;;;1.20;1.08;;;;;;;9.51;57.36;96632.53;5115922;28;20035;-76
2021/06/01 03:27:42;;;;;;;1.30;0.98;;;;;;;9.49;57.61;96629.31;5115494;28;20047;-75
2021/06/01 03:30:10;;;;;;;1.13;1.08;;;;;;;9.47;57.56;96628.72;5115128;28;20040;-75
2021/06/01 03:32:36;;;;;;;1.40;1.13;;;;;;;9.46;57.60;96629.72;5116215;28;20031;-76
2021/06/01 03:35:03;;;;;;;1.00;1.00;;;;;;;9.43;57.68;96624.88;5115573;28;20404;-75
2021/06/01 03:37:30;;;;;;;1.20;1.20;;;;;;;9.41;57.67;96627.72;5115697;27;20059;-75
2021/06/01 03:39:56;;;;;;;0.90;0.90;;;;;;;9.37;57.78;96630.97;5114782;28;20088;-75
2021/06/01 03:42:22;;;;;;;0.90;0.90;;;;;;;9.32;57.89;96628.94;5115607;28;20039;-75
2021/06/01 03:44:48;;;;;;;1.15;1.08;;;;;;;9.31;57.93;96635.22;5115310;28;20054;-75
2021/06/01 03:47:14;;;;;;;1.00;1.00;;;;;;;9.29;58.29;96632.78;5115376;28;20036;-75
2021/06/01 03:49:41;;;;;;;0.93;0.82;;;;;;;9.27;58.23;96631.38;5115231;28;20058;-74
2021/06/01 03:52:08;;;;;;;1.00;1.00;;;;;;;9.24;58.38;96637.00;5114279;28;20484;-75
2021/06/01 03:54:35;;;;;;;1.05;1.05;;;;;;;9.22;58.39;96646.88;5115564;28;20040;-75
2021/06/01 03:57:02;;;;;;;1.00;1.00;;;;;;;9.22;58.58;96636.41;5115504;28;20035;-75
2021/06/01 03:59:28;;;;;;;0.90;0.90;;;;;;;9.21;58.54;96626.97;5114825;28;20039;-75
2021/06/01 04:01:54;;;;;;;1.20;1.10;;;;;;;9.21;58.63;96632.22;5115599;28;20487;-75
2021/06/01 04:04:21;;;;;;;1.05;1.05;;;;;;;9.19;58.82;96634.22;5115168;28;20039;-75
2021/06/01 04:06:47;;;;;;;1.23;1.15;;;;;;;9.18;58.78;96624.78;5113970;28;20054;-76
2021/06/01 04:09:13;;;;;;;0.98;0.98;;;;;;;9.19;58.94;96631.59;5114619;28;20502;-76
2021/06/01 04:11:40;;;;;;;1.20;1.10;;;;;;;9.19;58.96;96629.78;5115194;28;20032;-77
2021/06/01 04:14:06;;;;;;;1.02;1.02;;;;;;;9.22;59.05;96628.56;5114946;28;20042;-75
2021/06/01 04:16:32;;;;;;;1.13;1.13;;;;;;;9.24;59.00;96630.00;5115043;28;20044;-76
2021/06/01 04:18:58;;;;;;;1.00;1.00;;;;;;;9.29;59.08;96629.38;5114984;28;20027;-76
2021/06/01 04:21:25;;;;;;;1.13;1.13;;;;;;;9.35;59.26;96628.56;5115325;28;20456;-76
2021/06/01 04:23:51;;;;;;;0.80;0.80;;;;;;;9.41;59.17;96630.34;5114819;28;20031;-76
2021/06/01 04:26:17;;;;;;;1.00;1.00;;;;;;;9.57;59.22;96623.03;5114799;28;20039;-76
2021/06/01 04:28:43;;;;;;;0.98;0.98;;;;;;;9.76;59.25;96624.78;5114658;28;20031;-76
2021/06/01 04:31:10;;;;;;;0.93;0.90;;;;;;;9.97;59.06;96623.69;5115247;28;20051;-76
2021/06/01 04:33:36;;;;;;;0.93;0.93;;;;;;;10.22;58.96;96621.13;5114550;28;20034;-76
2021/06/01 04:36:03;;;;;;;1.00;1.00;;;;;;;10.51;58.91;96624.19;5114401;28;20062;-76
2021/06/01 04:38:29;;;;;;;1.20;1.10;;;;;;;10.78;58.67;96611.69;5114511;28;20415;-76
2021/06/01 04:40:55;;;;;;;0.80;0.80;;;;;;;11.07;58.30;96607.59;5112598;28;20043;-76
2021/06/01 04:43:21;;;;;;;0.85;0.85;;;;;;;11.37;58.01;96604.25;5113062;28;20054;-75
2021/06/01 04:45:48;;;;;;;1.00;1.00;;;;;;;11.70;57.72;96605.72;5114887;28;20039;-75
2021/06/01 04:48:14;;;;;;;1.00;1.00;;;;;;;12.03;57.33;96607.94;5113765;28;20047;-78
2021/06/01 04:50:40;;;;;;;0.90;0.90;;;;;;;12.35;56.77;96610.34;5113433;28;20050;-75
2021/06/01 04:53:06;;;;;;;1.20;1.10;;;;;;;12.58;56.44;96604.34;5113173;28;20044;-76
2021/06/01 04:55:32;;;;;;;1.08;1.08;;;;;;;12.84;55.88;96595.19;5114176;28;20043;-76
2021/06/01 04:57:59;;;;;;;1.10;1.10;;;;;;;13.12;55.42;96593.69;5113467;28;20055;-76
2021/06/01 05:00:25;;;;;;;1.42;1.33;;;;;;;13.41;55.12;96586.72;5114045;28;20035;-76
2021/06/01 05:02:52;;;;;;;1.80;1.70;;;;;;;13.70;54.46;96577.03;5114068;28;20402;-76
2021/06/01 05:05:18;;;;;;;1.23;1.23;;;;;;;13.98;53.75;96573.59;5114145;28;20348;-76
2021/06/01 05:07:45;;;;;;;0.90;0.90;;;;;;;14.15;53.22;96559.63;5114310;28;20047;-76
2021/06/01 05:10:11;;;;;;;0.98;0.98;;;;;;;14.37;52.71;96557.13;5113862;28;20039;-76
2021/06/01 05:12:37;;;;;;;1.00;0.90;;;;;;;14.60;52.27;96548.28;5113999;28;20501;-75
2021/06/01 05:15:04;;;;;;;0.70;0.70;;;;;;;14.90;51.88;96555.03;5113146;28;20463;-75
2021/06/01 05:17:31;;;;;;;0.70;0.70;;;;;;;15.20;51.27;96550.19;5114033;28;20042;-75
2021/06/01 05:19:57;;;;;;;0.63;0.63;;;;;;;15.52;50.51;96546.09;5113732;28;20036;-76
2021/06/01 05:22:23;;;;;;;0.60;0.60;;;;;;;15.83;49.73;96549.88;5113934;28;20035;-76
2021/06/01 05:24:49;;;;;;;0.60;0.60;;;;;;;16.13;49.13;96545.97;5113712;28;20387;-76
2021/06/01 05:27:16;;;;;;;0.73;0.73;;;;;;;16.44;48.43;96547.00;5114051;28;20036;-76
2021/06/01 05:29:48;;;;;;;0.75;0.75;;;;;;;16.77;47.82;96543.28;5114259;28;20039;-76
2021/06/01 05:35:00;;;;;;;0.93;0.93;;;;;;;17.39;46.28;96544.44;5114134;28;20051;-76
2021/06/01 05:37:32;;;;;;;0.80;0.80;;;;;;;17.68;45.34;96543.22;5113536;28;20058;-76
2021/06/01 05:39:58;;;;;;;1.33;0.80;;;;;;;17.94;45.21;96544.91;5114107;28;20050;-76
2021/06/01 05:42:25;;;;;;;0.70;0.70;;;;;;;18.24;44.57;96546.81;5113824;28;20390;-76
2021/06/01 05:44:51;;;;;;;2.10;0.70;;;;;;;18.51;43.91;96537.78;5113016;28;20044;-76
2021/06/01 05:47:18;;;;;;;0.60;0.60;;;;;;;18.73;43.12;96547.34;5113521;28;20040;-76
2021/06/01 05:49:44;;;;;;;0.70;0.70;;;;;;;18.98;42.60;96541.22;5113500;28;20540;-75
2021/06/01 05:52:11;;;;;;;0.85;0.75;;;;;;;19.24;41.88;96548.06;5115133;28;20042;-76
2021/06/01 05:54:38;;;;;;;0.80;0.80;;;;;;;19.55;41.48;96549.81;5117827;28;20042;-75
2021/06/01 05:57:05;;;;;;;1.00;1.00;;;;;;;19.83;40.84;96551.06;5117915;28;20096;-75
2021/06/01 05:59:33;;;;;;;1.20;1.10;;;;;;;20.04;40.28;96552.53;5117196;28;20044;-75
2021/06/01 06:01:59;;;;;;;1.50;1.40;;;;;;;20.25;39.85;96553.19;5117579;28;20039;-75
2021/06/01 06:04:25;;;;;;;1.42;1.33;;;;;;;20.48;39.45;96549.03;5117538;28;20036;-76
2021/06/01 06:06:52;;;;;;;0.95;0.95;;;;;;;20.74;39.03;96550.69;5117663;28;20044;-75
2021/06/01 06:09:18;;;;;;;0.88;0.88;;;;;;;21.00;38.60;96560.06;5117364;28;20031;-76
2021/06/01 06:11:44;;;;;;;1.25;1.02;;;;;;;21.26;37.87;96552.56;5117276;28;20039;-77
2021/06/01 06:14:10;;;;;;;0.70;0.70;;;;;;;21.47;37.58;96558.50;5116195;28;20399;-77
2021/06/01 06:16:56;;;;;;;0.73;0.73;;;;;;;21.41;35.11;96569.50;5117275;28;20040;-77
2021/06/01 06:19:23;;;;;;;0.70;0.70;;;;;;;21.41;36.19;96578.28;5117689;28;20034;-75
2021/06/01 06:21:49;;;;;;;0.90;0.90;;;;;;;21.24;35.82;96585.94;5117224;28;20375;-75
2021/06/01 06:24:15;;;;;;;0.88;0.88;;;;;;;21.16;35.55;96579.34;5117136;28;20034;-75
2021/06/01 06:26:41;;;;;;;0.70;0.70;;;;;;;21.20;35.20;96574.25;5117221;28;20035;-75
2021/06/01 06:29:07;;;;;;;0.65;0.65;;;;;;;21.30;34.90;96571.47;5117069;28;20040;-75
2021/06/01 06:31:34;;;;;;;0.65;0.65;;;;;;;21.40;34.40;96579.38;5116761;28;20062;-75
2021/06/01 06:34:01;;;;;;;0.75;0.75;;;;;;;21.42;34.06;96579.13;5116874;28;20502;-75
2021/06/01 06:36:27;;;;;;;0.90;0.90;;;;;;;21.59;33.74;96568.00;5117060;28;20529;-76
2021/06/01 06:38:53;;;;;;;0.70;0.70;;;;;;;21.80;33.36;96565.88;5117422;28;20055;-76
2021/06/01 06:41:19;;;;;;;0.75;0.75;;;;;;;21.97;32.80;96558.16;5115306;28;20043;-77
2021/06/01 06:43:49;;;;;;;0.60;0.60;;;;;;;22.19;32.29;96556.78;5116866;28;20036;-77
2021/06/01 06:46:23;;;;;;;0.70;0.70;;;;;;;22.11;32.19;96555.53;5116078;28;20044;-77
2021/06/01 06:48:50;;;;;;;1.25;0.90;;;;;;;22.01;31.95;96558.38;5117138;27;20039;-75
2021/06/01 06:51:16;;;;;;;2.30;0.85;;;;;;;21.85;32.08;96561.22;5116496;27;20059;-74
2021/06/01 06:53:56;;;;;;;1.27;0.88;;;;;;;21.84;31.91;96557.00;5117026;28;20042;-75
2021/06/01 06:56:30;;;;;;;0.60;0.60;;;;;;;21.87;30.89;96547.59;5116022;27;20043;-75
2021/06/01 06:58:58;;;;;;;1.27;0.80;;;;;;;22.00;31.82;96554.88;5116873;28;20383;-75
2021/06/01 07:01:25;;;;;;;0.60;0.60;;;;;;;22.25;31.63;96553.75;5103702;28;20039;-75
2021/06/01 07:03:53;;;;;;;0.60;0.60;;;;;;;22.52;31.63;96552.28;5115270;28;20039;-75
2021/06/01 07:06:21;;;;;;;0.98;0.55;;;;;;;22.50;31.12;96557.13;5116587;28;20485;-75
2021/06/01 07:08:48;;;;;;;0.60;0.60;;;;;;;22.17;30.77;96558.94;5116400;28;20388;-75
2021/06/01 07:11:15;;;;;;;2.15;0.90;;;;;;;22.11;30.88;96560.88;5115040;28;20024;-75
2021/06/01 07:13:48;;;;;;;0.80;0.80;;;;;;;22.00;30.65;96554.88;5116161;28;20040;-75
2021/06/01 07:16:14;;;;;;;0.55;0.55;;;;;;;22.05;30.63;96551.38;5101582;27;20031;-75
2021/06/01 07:18:41;;;;;;;0.52;0.52;;;;;;;21.97;30.23;96550.13;5115963;28;20047;-75
2021/06/01 07:21:09;;;;;;;1.27;0.60;;;;;;;22.12;29.98;96549.13;5116100;27;20027;-75
2021/06/01 07:23:36;;;;;;;0.57;0.57;;;;;;;22.09;29.69;96542.50;5115554;28;20400;-75
2021/06/01 07:26:03;;;;;;;1.50;1.05;;;;;;;21.99;29.56;96547.19;5115621;28;20468;-75
2021/06/01 07:28:29;;;;;;;1.80;0.65;;;;;;;21.98;29.45;96546.38;5115942;28;20031;-75
2021/06/01 07:31:02;;;;;;;1.38;0.60;;;;;;;22.04;29.47;96542.56;5115975;28;20047;-74
2021/06/01 07:33:29;;;;;;;0.57;0.57;;;;;;;22.26;29.36;96552.69;5115915;28;20467;-75
2021/06/01 07:35:55;;;;;;;0.75;0.75;;;;;;;22.13;29.01;96548.03;5115716;28;20048;-74
2021/06/01 07:38:22;;;;;;;1.27;0.60;;;;;;;21.98;28.99;96545.59;5115624;28;20426;-75
2021/06/01 07:40:49;;;;;;;0.60;0.60;;;;;;;21.90;28.68;96547.00;5115358;28;20051;-75
2021/06/01 07:43:15;;;;;;;0.60;0.60;;;;;;;21.92;28.70;96538.72;5116133;28;20038;-75
2021/06/01 07:45:41;;;;;;;0.70;0.70;;;;;;;21.80;28.52;96531.94;5116065;28;20463;-74
2021/06/01 07:48:08;;;;;;;2.10;0.80;;;;;;;21.56;28.10;96539.97;5115146;28;20050;-75
2021/06/01 07:50:34;;;;;;;0.60;0.60;;;;;;;21.37;28.47;96539.91;5115425;28;20032;-75
2021/06/01 07:53:01;;;;;;;1.05;0.50;;;;;;;21.69;28.52;96536.63;5115551;28;20036;-74
2021/06/01 07:55:27;;;;;;;1.85;0.68;;;;;;;21.99;28.36;96529.28;5115618;28;20388;-75
2021/06/01 07:57:53;;;;;;;0.90;0.80;;;;;;;22.35;28.05;96533.34;5103358;28;20038;-74
2021/06/01 08:00:21;;;;;;;0.95;0.60;;;;;;;22.30;27.97;96523.53;5115136;28;20031;-74
2021/06/01 08:02:48;;;;;;;0.52;0.52;;;;;;;22.36;27.69;96519.66;5115288;28;20364;-75
2021/06/01 08:05:16;;;;;;;0.70;0.70;;;;;;;22.17;27.39;96527.66;5103700;28;20032;-74
2021/06/01 08:07:42;;;;;;;0.50;0.50;;;;;;;22.10;27.65;96520.03;5115290;28;20042;-75
2021/06/01 08:10:09;;;;;;;0.52;0.50;;;;;;;22.25;27.69;96526.25;5115227;27;20040;-74
2021/06/01 08:12:36;;;;;;;0.93;0.70;;;;;;;22.26;27.54;96525.19;5115187;27;20391;-74
2021/06/01 08:15:06;;;;;;;0.75;0.70;;;;;;;22.45;26.88;96512.59;5114379;28;20047;-75
2021/06/01 08:17:33;;;;;;;0.75;0.70;;;;;;;22.59;27.09;96511.81;5115086;27;20044;-74
2021/06/01 08:20:10;;;;;;;0.50;0.50;;;;;;;22.25;26.62;96523.59;5114735;28;20036;-75
2021/06/01 08:22:38;;;;;;;0.55;0.55;;;;;;;22.50;26.83;96520.50;5114862;28;20456;-75
2021/06/01 08:25:05;;;;;;;0.60;0.60;;;;;;;22.72;26.58;96516.41;5115071;28;20032;-74
2021/06/01 08:27:31;;;;;;;1.55;0.73;;;;;;;22.68;26.46;96520.75;5115021;28;20395;-74
2021/06/01 08:30:06;;;;;;;0.80;0.80;;;;;;;22.50;26.48;96520.50;5114814;28;20474;-74
2021/06/01 08:32:33;;;;;;;0.73;0.73;;;;;;;22.55;26.55;96516.94;5114180;28;20047;-74
2021/06/01 08:34:59;;;;;;;1.20;0.50;;;;;;;22.63;26.59;96512.81;5114047;28;20486;-74
2021/06/01 08:37:25;;;;;;;2.20;0.73;;;;;;;22.58;26.46;96508.34;5114309;28;20105;-74
2021/06/01 08:39:52;;;;;;;2.17;0.90;;;;;;;22.45;26.64;96522.47;5114508;28;20391;-75
2021/06/01 08:42:18;;;;;;;0.57;0.57;;;;;;;22.58;27.02;96510.25;5114484;28;20035;-75
2021/06/01 08:44:48;;;;;;;0.60;0.52;;;;;;;22.80;27.02;96513.03;5114268;28;20036;-75
2021/06/01 08:47:18;;;;;;;1.55;0.70;;;;;;;22.88;27.04;96514.25;5114377;28;20024;-74
2021/06/01 08:49:46;;;;;;;1.88;0.70;;;;;;;23.04;26.88;96522.81;5114035;28;20040;-75
2021/06/01 08:52:13;;;;;;;0.60;0.60;;;;;;;23.09;26.78;96507.44;5114459;28;20032;-74
2021/06/01 08:54:40;;;;;;;1.75;0.60;;;;;;;23.00;26.62;96517.25;5114370;28;20055;-75
2021/06/01 08:57:09;;;;;;;1.05;0.60;;;;;;;23.04;26.82;96512.13;5114434;28;20109;-76
2021/06/01 08:59:36;;;;;;;0.70;0.70;;;;;;;23.27;26.89;96511.13;5097828;28;20042;-75
2021/06/01 09:02:03;;;;;;;0.85;0.60;;;;;;;23.41;26.46;96503.06;5114787;28;20034;-74
2021/06/01 09:04:55;;;;;;;0.52;0.52;;;;;;;23.30;25.38;96507.84;5114298;28;20035;-75
2021/06/01 09:08:11;;;;;;;0.73;0.70;;;;;;;23.25;25.81;96507.19;5114266;28;20058;-75
2021/06/01 09:10:45;;;;;;;0.60;0.60;;;;;;;23.29;24.46;96500.13;5105205;28;20467;-75
2021/06/01 09:21:40;;;;;;;0.50;0.50;;;;;;;23.14;24.96;96489.72;5105392;28;20023;-75
2021/06/01 09:24:06;;;;;;;0.63;0.63;;;;;;;23.29;25.21;96482.19;5099322;28;20035;-75
2021/06/01 09:26:54;;;;;;;2.22;0.73;;;;;;;23.46;24.87;96478.91;5113272;28;20392;-75
2021/06/01 09:29:22;;;;;;;1.48;0.60;;;;;;;23.46;24.95;96476.22;5114153;28;20379;-74
2021/06/01 09:32:08;;;;;;;2.05;0.60;;;;;;;23.49;24.94;96472.16;5113304;28;20241;-75
2021/06/01 09:34:46;;;;;;;1.05;0.50;;;;;;;23.74;24.88;96470.81;5113607;28;20047;-75
2021/06/01 09:37:28;;;;;;;1.40;0.68;;;;;;;23.84;24.67;96469.81;5105141;28;20040;-74
2021/06/01 09:40:13;;;;;;;0.63;0.63;;;;;;;23.87;24.67;96472.66;5113689;28;20044;-74
2021/06/01 09:42:42;;;;;;;0.85;0.70;;;;;;;24.00;24.62;96471.06;5113625;28;20486;-74
2021/06/01 09:45:13;;;;;;;0.50;0.50;;;;;;;24.18;24.70;96471.97;5103485;28;20042;-74
2021/06/01 09:48:00;;;;;;;0.40;0.40;;;;;;;24.33;23.47;96464.66;5113386;28;20038;-75
2021/06/01 09:53:24;;;;;;;0.50;0.50;;;;;;;24.65;23.59;96456.38;5113491;28;20028;-74
2021/06/01 09:55:51;;;;;;;0.70;0.70;;;;;;;24.89;23.34;96463.25;5103751;28;20060;-75
2021/06/01 09:58:32;;;;;;;0.50;0.50;;;;;;;24.80;23.20;96446.31;5114068;28;20028;-75
2021/06/01 10:01:01;;;;;;;0.50;0.50;;;;;;;24.70;23.28;96466.94;5113799;28;20039;-74
2021/06/01 10:03:38;;;;;;;0.55;0.55;;;;;;;24.62;23.57;96448.91;5113408;28;20039;-75
2021/06/01 10:06:05;;;;;;;0.73;0.60;;;;;;;24.59;23.52;96452.22;5113216;28;20027;-75
2021/06/01 10:08:32;;;;;;;0.40;0.40;;;;;;;24.77;23.62;96453.06;5113335;28;20481;-75
2021/06/01 10:11:04;;;;;;;0.50;0.50;;;;;;;24.58;23.33;96447.16;5113311;28;20050;-75
2021/06/01 10:13:32;;;;;;;1.48;0.65;;;;;;;24.27;23.04;96448.72;5102206;28;20040;-74
2021/06/01 10:16:01;;;;;;;1.58;0.70;;;;;;;24.26;23.38;96449.78;5113043;28;20044;-75
2021/06/01 10:18:30;;;;;;;0.80;0.65;;;;;;;24.23;23.16;96461.13;5113306;28;20035;-74
2021/06/01 10:21:03;;;;;;;0.85;0.63;;;;;;;24.00;22.65;96446.97;5112404;28;20380;-76
2021/06/01 10:23:33;;;;;;;0.70;0.57;;;;;;;24.05;22.96;96446.03;5113960;28;20400;-75
2021/06/01 10:26:00;;;;;;;1.08;0.50;;;;;;;24.14;22.96;96438.06;5113124;28;20390;-76
2021/06/01 10:28:48;;;;;;;0.40;0.40;;;;;;;24.31;23.24;96441.63;5112117;28;20035;-76
2021/06/01 10:31:17;;;;;;;0.60;0.60;;;;;;;24.33;23.05;96433.28;5098333;28;20047;-76
2021/06/01 10:33:55;;;;;;;0.50;0.50;;;;;;;24.40;22.67;96430.97;5113160;28;20407;-76
2021/06/01 10:50:24;;;;;;;0.52;0.52;;;;;;;25.05;20.89;96413.44;5116622;28;20035;-76
2021/06/01 10:53:29;;;;;;;0.60;0.47;;;;;;;25.10;20.96;96413.28;5116507;28;20043;-76
2021/06/01 10:55:59;;;;;;;1.10;0.70;;;;;;;25.42;21.55;96421.25;5112794;28;20040;-76
2021/06/01 10:58:34;;;;;;;1.02;0.60;;;;;;;25.63;21.43;96405.31;5116605;28;20093;-76
2021/06/01 11:04:26;;;;;;;0.50;0.50;;;;;;;26.36;20.36;96391.16;5116448;28;20039;-76
2021/06/01 11:07:12;;;;;;;0.70;0.70;;;;;;;26.49;21.11;96390.94;5116940;27;20044;-76
2021/06/01 11:09:44;;;;;;;0.50;0.50;;;;;;;26.77;21.08;96395.13;5107542;28;20471;-76
2021/06/01 11:12:13;;;;;;;0.68;0.57;;;;;;;26.68;20.40;96395.97;5116314;28;20036;-76
2021/06/01 11:14:40;;;;;;;0.40;0.40;;;;;;;26.48;20.83;96400.16;5116392;28;20039;-76
2021/06/01 11:17:07;;;;;;;1.63;0.55;;;;;;;26.51;20.61;96402.19;5116040;28;20478;-76
2021/06/01 11:20:12;;;;;;;1.10;0.93;;;;;;;26.75;20.91;96405.44;5116373;27;20399;-76
2021/06/01 11:22:57;;;;;;;;;;;;;;;26.75;20.30;96392.75;5116846;28;20395;-75
2021/06/01 11:33:35;;;;;;;0.60;0.60;;;;;;;26.20;20.86;96391.66;5115926;28;20040;-76
2021/06/01 11:36:07;;;;;;;0.60;0.57;;;;;;;26.21;20.98;96379.81;5115999;28;20058;-76
2021/06/01 11:43:56;;;;;;;0.50;0.50;;;;;;;26.35;20.77;96384.97;5096676;28;19912;-75
2021/06/01 11:46:41;;;;;;;0.70;0.68;;;;;;;26.55;20.30;96372.75;5116245;28;20032;-76
2021/06/01 11:51:51;;;;;;;1.45;0.73;;;;;;;26.52;20.36;96374.19;5115882;28;20046;-76
2021/06/01 11:54:18;;;;;;;0.47;0.47;;;;;;;26.70;20.85;96374.91;5115466;28;20039;-74
2021/06/01 12:20:43;;;;;;;0.55;0.55;;;;;;;26.34;20.51;96353.84;5115501;28;20087;-80
2021/06/01 12:23:46;;;;;;;0.70;0.70;;;;;;;26.27;20.57;96359.72;5114774;28;20035;-77
2021/06/01 12:31:55;;;;;;;1.98;0.40;;;;;;;26.75;21.25;96343.56;5114562;28;20059;-71
2021/06/01 12:34:32;;;;;;;0.50;0.50;;;;;;;26.88;21.23;96346.03;5114703;28;20050;-71
2021/06/01 12:41:36;;;;;;;1.25;0.70;;;;;;;26.95;21.34;96339.34;5114247;28;20051;-71
2021/06/01 12:45:49;;;;;;;0.50;0.50;;;;;;;27.14;20.52;96340.47;5114541;28;20479;-71
2021/06/01 13:19:50;;;;;;;2.75;0.73;;;;;;;25.99;21.79;96318.22;5082145;28;20079;-74
2021/06/01 13:46:52;;;;;;;0.90;0.60;;;;;;;25.82;20.87;96295.63;5113660;28;20399;-75
2021/06/01 13:57:07;;;;;;;2.28;1.88;;;;;;;25.56;21.45;96284.16;5113733;28;20495;-75
2021/06/01 13:59:43;;;;;;;1.20;1.10;;;;;;;25.79;21.44;96292.81;5112912;28;20044;-75
2021/06/01 15:47:39;;;;;;;0.63;0.60;;;;;;;24.72;21.58;96203.84;5064646;28;20040;-74
2021/06/01 15:49:32;;;;;;;;;;;;;;;24.48;21.95;96202.38;5115704;28;20047;-74
2021/06/01 16:30:36;;;;;;;0.50;0.50;;;;;;;23.68;22.50;96193.56;5115048;28;20411;-74
2021/06/01 16:44:21;;;;;;;0.75;0.60;;;;;;;23.42;23.99;96185.41;5114898;28;20486;-74
2021/06/01 17:03:49;;;;;;;0.77;0.50;;;;;;;22.82;24.95;96192.69;5114106;28;20043;-75
2021/06/01 17:06:22;;;;;;;0.95;0.70;;;;;;;22.81;25.23;96198.38;5114056;27;20034;-74
2021/06/01 17:11:28;;;;;;;0.93;0.60;;;;;;;22.65;25.18;96197.91;5114026;27;20028;-74
2021/06/01 17:14:00;;;;;;;1.27;1.08;;;;;;;22.58;25.28;96200.22;5114136;28;20035;-74
2021/06/01 17:16:44;;;;;;;0.60;0.60;;;;;;;22.52;25.65;96196.06;5113919;28;20024;-74